Overseas Long Beach — WAAT — position and weather

sailwx.info

Track history (hours):
 
Tides and Currents Weather Stations Pressure Air Temp Water Temp Dewpoint Dewpoint Depression Visibility Wind Speed Wind Dir Waves Ship Positions

Overseas Long Beach

Owner: ASC Leasing II, Inc., Philadelphia, PA. More information available from US FCC via Universal Licensing System and Coast Guard Vessel Documentation Center.

Last reported at 2017-Feb-27 04:33 UTC. Time now 2017-Feb-27 14:20 UTC.
Position N 29°26' W 094°50'.

Length 181 m; draft 10.7 m.

Type: Tanker. MMSI: 367703000.

Date/timePositionNaut miles runAvg speedWind from/ knotsBaromVisibWave heightAir tempDewpointWater temp
2017-Feb-27 04:33N 29°26' W 094°50'1111.0
2017-Feb-27 03:33N 29°36' W 094°57'9 8.9
2017-Feb-27 02:33N 29°43' W 095°01'6 5.8
2017-Feb-27 01:32N 29°44' W 095°08'  
2017-Feb-24 10:05N 29°45' W 095°11'1 1.3
2017-Feb-24 09:33N 29°44' W 095°12'5 5.1
2017-Feb-24 08:33N 29°45' W 095°06'6 6.3
2017-Feb-24 07:33N 29°42' W 094°60'1111.1
2017-Feb-24 06:33N 29°32' W 094°54'1411.9
2017-Feb-24 05:23N 29°21' W 094°44'1111.1
2017-Feb-24 04:22N 29°16' W 094°33'3 4.0
2017-Feb-24 03:31N 29°15' W 094°29'0 0.0
2017-Feb-24 02:25N 29°15' W 094°29'0 0.0
2017-Feb-24 01:31N 29°15' W 094°29'0 0.0
2017-Feb-24 00:19N 29°15' W 094°29'0 0.0
2017-Feb-23 23:19N 29°15' W 094°29'0 0.0
2017-Feb-23 22:04N 29°15' W 094°29'0 0.0
2017-Feb-23 21:31N 29°15' W 094°29'0 0.0
2017-Feb-23 20:19N 29°15' W 094°29'44 7.6
2017-Feb-23 14:31N 28°49' W 093°48'4414.9
2017-Feb-23 11:33N 28°23' W 093°08'16715.8
2017-Feb-23 01:00N 27°00' W 090°24'37213.3 350 / 151009.110.8 18.012.7
2017-Feb-21 21:00N 24°30' W 084°06'11113.8 120 / 161014.010.8 26.120.225.4
2017-Feb-21 13:00N 24°12' W 082°06'13411.4 070 / 141018.310.8 21.016.1
2017-Feb-21 01:12N 25°17' W 079°57'812.7
2017-Feb-21 00:33N 25°26' W 079°56'1212.3
2017-Feb-20 23:33N 25°38' W 079°55'1111.3
2017-Feb-20 22:33N 25°49' W 079°55'1110.9
2017-Feb-20 21:33N 25°60' W 079°58'1110.7
2017-Feb-20 20:33N 26°11' W 079°59'1110.7
2017-Feb-20 19:33N 26°21' W 079°58'1110.7
2017-Feb-20 18:33N 26°32' W 079°58'1210.4
2017-Feb-20 17:25N 26°44' W 079°57'1011.2
2017-Feb-20 16:33N 26°53' W 079°57'1211.8
2017-Feb-20 15:33N 27°05' W 079°58'  
Track history (hours):
 
Tides and Currents Weather Stations Pressure Air Temp Water Temp Dewpoint Dewpoint Depression Visibility Wind Speed Wind Dir Waves Ship Positions

Overseas Long Beach

Owner: ASC Leasing II, Inc., Philadelphia, PA. More information available from US FCC via Universal Licensing System and Coast Guard Vessel Documentation Center.

Last reported at 2017-Feb-27 04:33 UTC. Time now 2017-Feb-27 14:20 UTC.
Position N 29°26' W 094°50'.

Length 181 m; draft 10.7 m.

Type: Tanker. MMSI: 367703000.

Date/timePositionNaut miles runAvg speedWind from/ knotsBaromVisibWave heightAir tempDewpointWater temp
2017-Feb-27 04:33N 29°26' W 094°50'1111.0
2017-Feb-27 03:33N 29°36' W 094°57'9 8.9
2017-Feb-27 02:33N 29°43' W 095°01'6 5.8
2017-Feb-27 01:32N 29°44' W 095°08'  
2017-Feb-24 10:05N 29°45' W 095°11'1 1.3
2017-Feb-24 09:33N 29°44' W 095°12'5 5.1
2017-Feb-24 08:33N 29°45' W 095°06'6 6.3
2017-Feb-24 07:33N 29°42' W 094°60'1111.1
2017-Feb-24 06:33N 29°32' W 094°54'1411.9
2017-Feb-24 05:23N 29°21' W 094°44'1111.1
2017-Feb-24 04:22N 29°16' W 094°33'3 4.0
2017-Feb-24 03:31N 29°15' W 094°29'0 0.0
2017-Feb-24 02:25N 29°15' W 094°29'0 0.0
2017-Feb-24 01:31N 29°15' W 094°29'0 0.0
2017-Feb-24 00:19N 29°15' W 094°29'0 0.0
2017-Feb-23 23:19N 29°15' W 094°29'0 0.0
2017-Feb-23 22:04N 29°15' W 094°29'0 0.0
2017-Feb-23 21:31N 29°15' W 094°29'0 0.0
2017-Feb-23 20:19N 29°15' W 094°29'44 7.6
2017-Feb-23 14:31N 28°49' W 093°48'4414.9
2017-Feb-23 11:33N 28°23' W 093°08'16715.8
2017-Feb-23 01:00N 27°00' W 090°24'37213.3 350 / 151009.110.8 18.012.7
2017-Feb-21 21:00N 24°30' W 084°06'11113.8 120 / 161014.010.8 26.120.225.4
2017-Feb-21 13:00N 24°12' W 082°06'13411.4 070 / 141018.310.8 21.016.1
2017-Feb-21 01:12N 25°17' W 079°57'812.7
2017-Feb-21 00:33N 25°26' W 079°56'1212.3
2017-Feb-20 23:33N 25°38' W 079°55'1111.3
2017-Feb-20 22:33N 25°49' W 079°55'1110.9
2017-Feb-20 21:33N 25°60' W 079°58'1110.7
2017-Feb-20 20:33N 26°11' W 079°59'1110.7
2017-Feb-20 19:33N 26°21' W 079°58'1110.7
2017-Feb-20 18:33N 26°32' W 079°58'1210.4
2017-Feb-20 17:25N 26°44' W 079°57'1011.2
2017-Feb-20 16:33N 26°53' W 079°57'1211.8
2017-Feb-20 15:33N 27°05' W 079°58'  

Dump ship's entire track history